Miracle, Kentucky
Current Conditions -  °F | °C
As of 3:15 PM on Monday 26 Jan 2015 (Local Time) from K1A6 Reporting Station
Overcast Overcast  
Wind Chill: 25°   Ceiling: 1400
Heat Index: 30°   Visibility: 10mi
Dew Point: 26°   Wind: 5mph
Humidity: 84%   Direction: 310°NW
Pressure: 29.87"   Gusts: NA
Location:  36.75°N, 83.6°W
Report Text: K1A6 262015Z AUTO 31004KT 10SM OVC014 M01/M04 A2987 RMK AO2 T10121036
Loading
Personal Weather Stations






























Interactive Weather Map New forecast layout! Learn more

10-Day Weather Forecast

Advertisements
Track Severe Weather on mobile